CheckWX is a tool to help pilots better visualize weather data.  It is not intended as a substitute for an official pre-flight weather briefing.

09:13:24 UTC

KLGB METAR
Long Beach / Daugherty Field / Airport
Long Beach, California, USA
Current

20 mins ago

KLGB 190853Z AUTO 26006KT 10SM OVC065 14/09 A2992 RMK AO2 RAE52 SLP131 P0001 60002 T01390089 58004
Observed
May-19 @ 08:53 UTC
Wind
  • 260° at 6 KTS
Visibility
10 SM
Flight Rules
VFR
Cloud Levels
  • Overcast at 6,500' AGL
Temperature
14°C / 57°F
Dewpoint
C / 48°F
Humidity
72%
Altimeter
29.92" Hg
Pressure
1013.22 hPa
Current Rain
0.01"
Previous

1 hour ago

KLGB 190753Z AUTO 28008KT 10SM -RA OVC065 14/09 A2993 RMK AO2 RAB45 SLP134 P0000 T01440094 402110128
Observed
May-19 @ 07:53 UTC
Wind
  • 280° at 8 KTS
Visibility
10 SM
Flight Rules
VFR
Conditions
Light Rain
Cloud Levels
  • Overcast at 6,500' AGL
Temperature
14°C / 57°F
Dewpoint
C / 48°F
Humidity
72%
Altimeter
29.93" Hg
Pressure
1013.52 hPa
Current Rain
0.01"
Previous

2 hours ago

KLGB 190735Z AUTO 29010KT 10SM FEW017 SCT029 OVC060 15/10 A2993 RMK AO2 T01500100
Observed
May-19 @ 07:35 UTC
Wind
  • 290° at 10 KTS
Visibility
10 SM
Flight Rules
VFR
Cloud Levels
  • Few at 1,700' AGL
  • Scattered at 2,900' AGL
  • Overcast at 6,000' AGL
Temperature
15°C / 59°F
Dewpoint
10°C / 50°F
Humidity
72%
Altimeter
29.93" Hg
Pressure
1013.52 hPa